YAMB

RAAF Base Amberley Airport

Australia
TAF AMD YAMB 210813Z 2108/2124 12012KT 9999 -SHRA SCT040 FM211000 17005KT 9999 SCT025 FM211600 20005KT 9999 FEW010 SCT025 FM212200 15010KT 9999 SCT010 PROB30 2117/2121 2000 BR
Issued Valid From Valid To
Apr-21 @ 08:13 UTC
(an hour ago)
Apr-21 @ 08:00 UTC
(2 hours ago)
Apr-22 @ 00:00 UTC
(in 14 hours)
Apr-21 @ 08:00 to Apr-21 @ 10:00
TAF AMD YAMB 210813Z 2108/2124 12012KT 9999 -SHRA SCT040
Wind Visibility Clouds Conditions
120° at 12 knots 10,000+ meters
  • Scattered at 4,000' AGL
  • Light Rain
From Apr-21 @ 10:00 to Apr-21 @ 16:00
FM211000 17005KT 9999 SCT025
Wind Visibility Clouds
170° at 5 knots 10,000+ meters
  • Scattered at 2,500' AGL
From Apr-21 @ 16:00 to Apr-21 @ 22:00
FM211600 20005KT 9999 FEW010 SCT025
Wind Visibility Clouds
200° at 5 knots 10,000+ meters
  • Few at 1,000' AGL
  • Scattered at 2,500' AGL
Probable  (Probability 30%) Apr-21 @ 17:00 to Apr-21 @ 21:00
PROB30 2117/2121 2000 BR
Visibility Conditions
1,996 meters
  • Mist
From Apr-21 @ 22:00 to Apr-22 @ 00:00
FM212200 15010KT 9999 SCT010
Wind Visibility Clouds
150° at 10 knots 10,000+ meters
  • Scattered at 1,000' AGL
TAF AMD YAMB 210813Z 2108/2124 12012KT 9999 -SHRA SCT040 FM211000 17005KT 9999 SCT025 FM211600 20005KT 9999 FEW010 SCT025 FM212200 15010KT 9999 SCT010 PROB30 2117/2121 2000 BR
Issued Apr-21 @ 08:13 UTC
(an hour ago)
Valid From Apr-21 @ 08:00 UTC
(2 hours ago)
Valid To Apr-22 @ 00:00 UTC
(in 14 hours)
Apr-21 @ 08:00 - Apr-21 @ 10:00
Wind Visibility
120° at 12 knots 10,000+ meters
Clouds
  • Scattered at 4,000' AGL
Conditions
  • Light Rain
From Apr-21 @ 10:00 - Apr-21 @ 16:00
Wind Visibility
170° at 5 knots 10,000+ meters
Clouds
  • Scattered at 2,500' AGL
From Apr-21 @ 16:00 - Apr-21 @ 22:00
Wind Visibility
200° at 5 knots 10,000+ meters
Clouds
  • Few at 1,000' AGL
  • Scattered at 2,500' AGL
Probability 30% Probable Apr-21 @ 17:00 - Apr-21 @ 21:00
Conditions
  • Mist
From Apr-21 @ 22:00 - Apr-22 @ 00:00
Wind Visibility
150° at 10 knots 10,000+ meters
Clouds
  • Scattered at 1,000' AGL